Airfield :
LOGIN :

Register | Disclaimer

   EN    FR    IT 

 










Legend :    VFR   Marginal VFR   IFR   Intensive IFR   Very Intensive IFR
Visi :
Ceiling :
>= 8 km
>= 3000ft
5 to 8 km
1000 to 3000 ft
1500m to 5 km
500 to 1000 ft
800 to 1500m
200 to 500 ft
< 800m
< 200 ft
Symbols :   Thunderstorms  Fog  Heavy snow  Heavy precipitations  Wind > 20 kt
SIGMETs :     Misc.  Thunderstorms  Icing  Turbulence  Mountain Waves  Volcanic Ashes






- Airport Elevation : 36 ft
- IATA code : RIX


EVRA - Riga

CURRENT METAR :
  • 090750Z 21006KT CAVOK 09/M00 Q1011 NOSIG

EXPIRED METARs :
  • 090720Z 23007KT CAVOK 09/M00 Q1011 NOSIG
  • 090650Z 22008KT CAVOK 09/M00 Q1011 NOSIG
  • 090620Z 22007KT 190V250 CAVOK 08/M00 Q1011 NOSIG
  • 090550Z 23004KT CAVOK 08/M00 Q1011 NOSIG
  • 090520Z 22006KT 9999 FEW050CB 07/M00 Q1011 NOSIG

TAF TAF EVRA
Valid from the 09 at 06:00 until the 10 at 06:00 UTC


090501Z 0906/1006 22007KT CAVOK
BECMG 0910/0912 33010KT
TEMPO 0915/0918 33015G28KT



MET'MAP, your aeronautical weather chart ! - Copyright ORBIFLY December 2007 - Disclaimer

ORBIFLY MET'MAP TEAM :

Programming & Development : Alexandra Zaïnal
Concept & original design : Baudouin d'Aumeries
Assistance for programming : Marc-Olivier Méhu
Technical & hardware support : Manuel Goepfert

Contact : metmap@orbifly.com




SOURCES & CREDITS :

   NOAA